Impacts METAR Board
IDs:

KSLC - Salt Lake City Intl, UT, US

Updated at: 0600 UTC 14 Dec 2018
Potential Impact None Slight Moderate High
Time 13/18Z 13/19Z 13/20Z 13/21Z 13/22Z 13/23Z 14/00Z 14/01Z 14/02Z 14/03Z 14/04Z 14/05Z 14/06Z
Temp32 33 35 36 37 38 33 30 31 30 30 27 27
Dewpt20 21 20 19 18 18 25 24 24 23 20 20 20
Altim30.51 30.50 30.48 30.46 30.46 30.47 30.47 30.46 30.46 30.47 30.47 30.46 30.47
VIS10 10 10 10 10 10 10 10 10 10 10 10 10
CIG-- -- 200 200 230 240 240 -- -- -- -- -- --
CoverSCTSCTBKNBKNBKNBKNBKNSCTCLRCLRCLRCLRCLR
FltCatVFRVFRVFRVFRVFRVFRVFRVFRVFRVFRVFRVFRVFR
WX--------------------------
WDir130130170002802902500130150180130
WSpd6 4 4 3 0 3 6 4 0 4 4 4 4
WGst-- -- -- -- -- -- -- -- -- -- -- -- --
Raw hourly METARs
KSLC 131754Z 13006KT 10SM SCT200 00/M07 A3051 RMK AO2 SLP352 T00001067 10000 21056 51012 $
KSLC 131854Z 13004KT 10SM SCT200 01/M06 A3050 RMK AO2 SLP347 T00061061 $
KSLC 131954Z 17004KT 10SM FEW120 BKN200 02/M07 A3048 RMK AO2 SLP338 T00171067 $
KSLC 132054Z VRB03KT 10SM FEW120 BKN200 02/M07 A3046 RMK AO2 SLP334 T00221072 57015 $
KSLC 132154Z 00000KT 10SM FEW120 SCT200 BKN230 03/M08 A3046 RMK AO2 SLP334 T00281078 $
KSLC 132254Z 28003KT 10SM FEW120 SCT210 BKN240 03/M08 A3047 RMK AO2 SLP334 T00331078 $
KSLC 132354Z 29006KT 10SM FEW140 BKN240 01/M04 A3047 RMK AO2 SLP340 T00061039 10033 20000 53003 $
KSLC 140054Z 25004KT 10SM FEW140 SCT240 M01/M04 A3046 RMK AO2 SLP341 T10111044 $
KSLC 140154Z 00000KT 10SM CLR M01/M04 A3046 RMK AO2 SLP341 T10061044 $
KSLC 140254Z 13004KT 10SM CLR M01/M05 A3047 RMK AO2 SLP343 T10111050 55001 $
KSLC 140354Z 15004KT 10SM CLR M01/M07 A3047 RMK AO2 SLP341 T10111067 $
KSLC 140454Z 18004KT 10SM CLR M03/M07 A3046 RMK AO2 SLP337 T10281067 $
KSLC 140554Z 13004KT 10SM CLR M03/M07 A3047 RMK AO2 SLP338 T10281067 10006 21028 53001 $



Page loaded:  06:07 UTC  |   10:07 PM Pacific  |   11:07 PM Mountain  |   12:07 AM Central  |   01:07 AM Eastern

 

ADVISORIES

FORECASTS

FORECASTS

OBSERVATIONS

USER TOOLS

ABOUT US